Aeroporto :
LOGIN :

Iscrizione | Disclaimer

   EN    FR    IT 

 










Sommario :    VFR   VFR Marginale   IFR   IFR Intensivo   IFR Molto Intensivo
Visibilità : 
Base nubi : 
>= 8 km
>= 3000ft
5 / 8 km
1000 / 3000 ft
1500m / 5 km
500 / 1000 ft
800 / 1500m
200 / 500 ft
< 800m
< 200 ft
Simboli :   Temporali  Nebbia  Neve Forte  Precipitazioni Forti  Vento > 20 kt
SIGMETs :   Varie  Temporali  Ghiacco  Turbolenza  Onda orograficha  Ceneri Vulcaniche






- Altitudine del aeroporto : 53 ft
- Codice IATA : HAM


EDDH - Hamburg

ULTIMO METAR :
  • 080220Z 25005KT 220V280 9999 FEW023 11/09 Q1014 NOSIG

METARs OBSOLETI :
  • 080150Z 25005KT 220V290 9999 FEW016 SCT044 11/09 Q1014 NOSIG
  • 080120Z 24006KT 9999 FEW025 11/09 Q1014 NOSIG
  • 080050Z 24005KT CAVOK 12/10 Q1014 NOSIG
  • 080020Z 24005KT 9999 SCT049 12/10 Q1014 NOSIG
  • 072350Z 25005KT 220V280 9999 FEW020 BKN049 12/10 Q1015 NOSIG

TAF TAF EDDH
Valido dal 08 a 00 ore il 09 a 06 ore UTC


072300Z 0800/0906 24007KT 9999 SCT025
TEMPO 0800/0807 BKN012
PROB30
TEMPO 0800/0816 SHRA BKN015CB
BECMG 0810/0812 30008KT
BECMG 0818/0820 VRB02KT



MetMap, La meteo Aeronautica in un colpo d'occhio ! - Copyright ORBIFLY Dicembre 2007 - Disclaimer

ORBIFLY MET'MAP TEAM :

Programmazione e sviluppo : Alexandra Zaïnal
Concezione : Baudouin d'Aumeries
Aiuto per la programmazione : Marc-Olivier Méhu
Supporto tecnico e logistico : Manuel Goepfert
Aiuto per la traduzione : Arnaldo La Scala

Contatto : metmap@orbifly.com




FONTI E CREDITI :

   NOAA